Time;durP1;ratioP1;P1;durP2;ratioP2;P2;SDS_P1;SDS_P2;PMS_P1;PMS_P2;Temp;Humidity;BMP_temperature;BMP_pressure;BME280_temperature;BME280_humidity;BME280_pressure;Samples;Min_cycle;Max_cycle;Signal;HPM_P1;HPM_P2
2023/07/21 00:01:25;;;;;;;0.80;0.80;;;19.00;98.40;;;;;;5046014;28;20029;-41
2023/07/21 00:03:50;;;;;;;0.80;0.73;;;19.00;98.50;;;;;;5045870;28;20025;-41
2023/07/21 00:06:19;;;;;;;0.80;0.80;;;19.00;98.50;;;;;;5045973;28;20373;-41
2023/07/21 00:08:45;;;;;;;1.67;0.88;;;19.00;98.50;;;;;;5045684;28;20056;-41
2023/07/21 00:11:11;;;;;;;1.15;0.80;;;19.00;98.60;;;;;;5045937;28;20054;-41
2023/07/21 00:13:36;;;;;;;1.00;0.70;;;19.00;98.60;;;;;;5045905;28;20036;-41
2023/07/21 00:16:06;;;;;;;1.00;0.82;;;18.90;98.50;;;;;;5045930;28;20381;-41
2023/07/21 00:18:35;;;;;;;0.70;0.70;;;18.90;98.50;;;;;;5046346;28;20112;-41
2023/07/21 00:21:05;;;;;;;0.70;0.70;;;18.80;98.50;;;;;;5045205;28;20021;-41
2023/07/21 00:23:31;;;;;;;1.05;0.82;;;18.80;98.50;;;;;;5046746;28;20031;-41
2023/07/21 00:26:02;;;;;;;1.05;0.88;;;18.80;98.50;;;;;;5045972;28;20036;-40
2023/07/21 00:28:31;;;;;;;0.90;0.70;;;18.80;98.40;;;;;;5045222;28;20465;-42
2023/07/21 00:30:57;;;;;;;1.83;1.10;;;18.80;98.40;;;;;;5045822;28;20045;-42
2023/07/21 00:33:25;;;;;;;0.95;0.82;;;18.80;98.40;;;;;;5045510;28;20574;-41
2023/07/21 00:35:52;;;;;;;2.22;0.95;;;18.80;98.30;;;;;;5044366;28;20120;-42
2023/07/21 00:38:17;;;;;;;0.95;0.90;;;18.70;98.30;;;;;;5045468;28;20077;-41
2023/07/21 00:40:44;;;;;;;0.80;0.75;;;18.70;98.30;;;;;;5045395;28;20040;-44
2023/07/21 00:43:13;;;;;;;1.08;0.98;;;18.60;98.30;;;;;;5044772;28;20021;-41
2023/07/21 00:45:39;;;;;;;1.10;1.00;;;18.60;98.40;;;;;;5045640;28;20032;-41
2023/07/21 00:48:09;;;;;;;1.23;1.00;;;18.50;98.50;;;;;;5045233;28;20544;-41
2023/07/21 00:50:50;;;;;;;1.10;1.00;;;18.50;98.60;;;;;;5045599;28;20044;-41
2023/07/21 00:53:16;;;;;;;1.00;0.90;;;18.50;98.70;;;;;;5041992;28;20067;-41
2023/07/21 00:55:42;;;;;;;1.35;0.90;;;18.40;98.80;;;;;;5044646;28;20045;-41
2023/07/21 00:58:09;;;;;;;1.67;0.90;;;18.40;98.90;;;;;;5045574;28;20104;-41
2023/07/21 01:00:36;;;;;;;1.00;0.80;;;18.40;99.00;;;;;;5045336;28;20028;-42
2023/07/21 01:03:03;;;;;;;1.13;1.02;;;18.40;99.10;;;;;;5044043;28;20040;-42
2023/07/21 01:05:32;;;;;;;1.42;1.15;;;18.30;99.10;;;;;;5045315;28;20029;-42
2023/07/21 01:07:59;;;;;;;1.17;0.82;;;18.30;99.20;;;;;;5044268;28;20434;-41
2023/07/21 01:10:25;;;;;;;1.15;1.00;;;18.30;99.40;;;;;;5044593;28;20080;-42
2023/07/21 01:12:57;;;;;;;2.45;0.80;;;18.30;99.40;;;;;;5044786;28;20030;-42
2023/07/21 01:15:24;;;;;;;1.30;1.20;;;18.20;99.40;;;;;;5045209;28;20048;-42
2023/07/21 01:17:51;;;;;;;0.98;0.90;;;18.20;99.40;;;;;;5043693;28;20114;-42
2023/07/21 01:20:17;;;;;;;0.80;0.80;;;18.20;99.40;;;;;;5045012;28;20040;-41
2023/07/21 01:23:02;;;;;;;1.73;1.00;;;18.20;99.40;;;;;;5044884;28;20032;-42
2023/07/21 01:25:29;;;;;;;0.85;0.75;;;18.20;99.70;;;;;;5044465;28;20139;-42
2023/07/21 01:27:56;;;;;;;1.10;1.00;;;18.20;99.50;;;;;;5044985;28;20025;-41
2023/07/21 01:30:22;;;;;;;1.05;0.95;;;18.20;99.50;;;;;;5045170;28;20036;-42
2023/07/21 01:32:50;;;;;;;1.38;0.90;;;18.20;99.60;;;;;;5043908;28;20009;-42
2023/07/21 01:35:19;;;;;;;1.17;1.08;;;18.20;99.60;;;;;;5044807;28;20265;-41
2023/07/21 01:37:49;;;;;;;1.30;0.98;;;18.20;99.70;;;;;;5044946;28;20042;-42
2023/07/21 01:40:16;;;;;;;0.80;0.80;;;18.20;99.70;;;;;;5033645;28;20138;-42
2023/07/21 01:42:44;;;;;;;2.85;1.27;;;18.20;99.80;;;;;;5044618;28;20021;-42
2023/07/21 01:45:10;;;;;;;0.98;0.90;;;18.10;99.80;;;;;;5044685;28;20163;-42
2023/07/21 01:47:36;;;;;;;1.60;1.38;;;18.10;99.90;;;;;;5045046;28;20536;-42
2023/07/21 01:50:06;;;;;;;1.15;1.05;;;18.10;99.90;;;;;;5045063;28;20473;-41
2023/07/21 01:52:34;;;;;;;1.50;1.00;;;18.10;99.90;;;;;;5045178;28;20112;-43
2023/07/21 01:55:16;;;;;;;1.60;0.90;;;18.10;99.90;;;;;;5044306;28;20566;-42
2023/07/21 01:57:48;;;;;;;1.02;0.93;;;18.00;99.90;;;;;;5047751;28;20134;-42
2023/07/21 02:00:15;;;;;;;1.13;1.02;;;18.00;99.90;;;;;;5048400;28;20134;-41
2023/07/21 02:02:42;;;;;;;1.30;1.00;;;18.00;99.90;;;;;;5048993;28;20080;-42
2023/07/21 02:05:22;;;;;;;1.20;1.10;;;18.00;99.90;;;;;;5048191;28;20116;-41
2023/07/21 02:07:50;;;;;;;1.25;1.15;;;17.90;99.90;;;;;;5047983;28;20076;-42
2023/07/21 02:10:17;;;;;;;1.30;1.20;;;17.90;99.90;;;;;;5048342;28;20036;-43
2023/07/21 02:12:45;;;;;;;3.90;1.30;;;17.80;99.90;;;;;;5048547;28;20420;-42
2023/07/21 02:15:12;;;;;;;1.52;1.23;;;17.80;99.90;;;;;;5048031;28;20115;-42
2023/07/21 02:17:37;;;;;;;1.35;1.25;;;17.70;99.90;;;;;;5047955;28;20579;-42
2023/07/21 02:20:09;;;;;;;1.30;1.20;;;17.70;99.90;;;;;;5047656;28;20025;-41
2023/07/21 02:22:39;;;;;;;1.67;1.40;;;17.70;99.90;;;;;;5048349;28;20491;-41
2023/07/21 02:25:08;;;;;;;1.35;1.25;;;17.70;99.90;;;;;;5048453;28;20052;-42
2023/07/21 02:27:44;;;;;;;1.17;1.08;;;17.60;99.90;;;;;;5047470;28;20503;-42
2023/07/21 02:30:10;;;;;;;1.85;1.27;;;17.50;99.90;;;;;;5047536;28;20028;-42
2023/07/21 02:32:36;;;;;;;2.40;1.23;;;17.50;99.90;;;;;;5047618;28;20013;-41
2023/07/21 02:35:01;;;;;;;1.70;1.20;;;17.40;99.90;;;;;;5047319;28;20033;-41
2023/07/21 02:37:27;;;;;;;1.60;1.30;;;17.40;99.90;;;;;;5048273;28;20039;-41
2023/07/21 02:39:53;;;;;;;1.85;1.13;;;17.40;99.90;;;;;;5047539;28;20450;-42
2023/07/21 02:42:19;;;;;;;1.40;1.30;;;17.40;99.90;;;;;;5036221;28;20450;-41
2023/07/21 02:44:50;;;;;;;1.23;1.15;;;17.40;99.90;;;;;;5047692;28;20908;-42
2023/07/21 02:47:16;;;;;;;1.23;1.13;;;17.40;99.90;;;;;;5047525;28;20457;-42
2023/07/21 02:49:43;;;;;;;1.23;1.13;;;17.40;99.90;;;;;;5047544;28;20035;-42
2023/07/21 02:52:08;;;;;;;1.90;1.20;;;17.50;99.90;;;;;;5047657;28;20043;-42
2023/07/21 02:54:34;;;;;;;1.65;1.30;;;17.40;99.90;;;;;;5046983;28;20138;-41
2023/07/21 02:57:00;;;;;;;2.08;1.17;;;17.40;99.90;;;;;;5046686;28;20025;-41
2023/07/21 02:59:27;;;;;;;1.30;1.20;;;17.40;99.90;;;;;;5047636;28;20024;-42
2023/07/21 03:02:02;;;;;;;1.27;1.17;;;17.40;99.90;;;;;;5047050;28;20025;-42
2023/07/21 03:04:28;;;;;;;2.05;1.20;;;17.30;99.90;;;;;;5027483;28;20503;-41
2023/07/21 03:06:55;;;;;;;3.20;1.40;;;17.30;99.90;;;;;;5042378;28;20037;-42
2023/07/21 03:09:23;;;;;;;2.55;1.20;;;17.30;99.90;;;;;;5045336;28;20500;-42
2023/07/21 03:11:48;;;;;;;1.27;1.17;;;17.30;99.90;;;;;;5047682;28;20032;-43
2023/07/21 03:14:14;;;;;;;1.10;1.00;;;17.30;99.90;;;;;;5047443;28;20025;-43
2023/07/21 03:16:40;;;;;;;1.65;1.30;;;17.20;99.90;;;;;;5046676;28;20394;-42
2023/07/21 03:19:07;;;;;;;2.72;1.33;;;17.20;99.90;;;;;;5047173;28;20025;-42
2023/07/21 03:21:32;;;;;;;2.15;1.42;;;17.20;99.90;;;;;;5047364;28;20091;-41
2023/07/21 03:23:58;;;;;;;2.65;1.58;;;17.20;99.90;;;;;;5046542;28;20141;-42
2023/07/21 03:26:27;;;;;;;1.27;1.17;;;17.10;99.90;;;;;;5047045;28;20063;-41
2023/07/21 03:28:54;;;;;;;2.03;1.38;;;17.10;99.90;;;;;;5036164;28;20021;-40
2023/07/21 03:31:19;;;;;;;1.40;1.30;;;17.10;99.90;;;;;;5046376;28;20031;-42
2023/07/21 03:33:45;;;;;;;1.33;1.23;;;17.10;99.90;;;;;;5047027;28;20013;-42
2023/07/21 03:36:10;;;;;;;1.83;1.27;;;17.00;99.90;;;;;;5046483;28;20040;-43
2023/07/21 03:38:36;;;;;;;1.50;1.40;;;17.00;99.90;;;;;;5046584;28;20025;-42
2023/07/21 03:41:09;;;;;;;1.40;1.20;;;17.00;99.90;;;;;;5046620;28;20033;-41
2023/07/21 03:43:37;;;;;;;1.60;1.50;;;16.90;99.90;;;;;;5046159;28;20067;-41
2023/07/21 03:46:06;;;;;;;1.50;1.23;;;16.90;99.90;;;;;;5046270;28;20025;-42
2023/07/21 03:48:44;;;;;;;3.15;1.35;;;16.90;99.90;;;;;;5046217;28;20426;-43
2023/07/21 03:51:11;;;;;;;1.20;1.10;;;16.80;99.90;;;;;;5046569;28;20562;-47
2023/07/21 03:53:39;;;;;;;1.67;1.58;;;16.80;99.90;;;;;;5045355;28;20025;-42
2023/07/21 03:56:08;;;;;;;2.03;1.30;;;16.80;99.90;;;;;;5026551;28;20060;-42
2023/07/21 03:58:33;;;;;;;1.40;1.30;;;16.80;99.90;;;;;;5040442;28;20024;-43
2023/07/21 04:00:59;;;;;;;1.98;1.40;;;16.80;99.90;;;;;;5046447;28;20852;-42
2023/07/21 04:03:25;;;;;;;1.05;1.05;;;16.80;99.90;;;;;;5046886;28;20025;-41
2023/07/21 04:05:51;;;;;;;1.40;1.30;;;16.80;99.90;;;;;;5045820;28;20136;-42
2023/07/21 04:08:18;;;;;;;1.52;1.20;;;16.80;99.90;;;;;;5045925;28;20280;-41
2023/07/21 04:10:44;;;;;;;2.35;1.40;;;16.80;99.90;;;;;;5046083;28;20029;-42
2023/07/21 04:13:10;;;;;;;1.38;1.27;;;16.80;99.90;;;;;;5045612;28;20017;-42
2023/07/21 04:15:36;;;;;;;1.33;1.23;;;16.70;99.90;;;;;;5045699;28;20393;-42
2023/07/21 04:18:02;;;;;;;1.33;1.20;;;16.80;99.90;;;;;;5046059;28;20037;-41
2023/07/21 04:20:31;;;;;;;1.40;1.30;;;16.80;99.90;;;;;;5044569;28;20033;-41
2023/07/21 04:22:57;;;;;;;1.52;1.40;;;16.80;99.90;;;;;;5045741;28;20461;-42
2023/07/21 04:25:23;;;;;;;1.77;1.20;;;16.90;99.90;;;;;;5046067;28;20039;-41
2023/07/21 04:27:50;;;;;;;1.45;1.30;;;16.90;99.90;;;;;;5045160;28;20025;-42
2023/07/21 04:30:17;;;;;;;1.50;1.30;;;16.90;99.90;;;;;;5045592;28;20028;-41
2023/07/21 04:32:42;;;;;;;1.33;1.15;;;16.90;99.90;;;;;;5046433;28;20033;-42
2023/07/21 04:35:16;;;;;;;2.35;1.23;;;16.90;99.90;;;;;;5044427;28;20036;-41
2023/07/21 04:37:42;;;;;;;1.30;1.20;;;16.90;99.90;;;;;;5045872;28;20488;-42
2023/07/21 04:40:07;;;;;;;1.55;1.45;;;16.90;99.90;;;;;;5045659;28;20021;-42
2023/07/21 04:42:33;;;;;;;1.30;1.20;;;16.90;99.90;;;;;;5045145;28;20432;-42
2023/07/21 04:45:00;;;;;;;1.38;1.27;;;16.90;99.90;;;;;;5045705;28;20393;-41
2023/07/21 04:47:25;;;;;;;2.83;1.58;;;16.90;99.90;;;;;;5046039;28;20029;-41
2023/07/21 04:49:52;;;;;;;1.40;1.30;;;16.90;99.90;;;;;;5044497;28;20017;-42
2023/07/21 04:52:18;;;;;;;1.50;1.40;;;16.90;99.90;;;;;;5045433;28;20024;-42
2023/07/21 04:54:44;;;;;;;1.90;1.45;;;16.90;99.90;;;;;;5044907;28;20021;-41
2023/07/21 04:57:10;;;;;;;1.50;1.40;;;16.90;99.90;;;;;;5044876;28;20370;-42
2023/07/21 04:59:36;;;;;;;1.50;1.40;;;16.90;99.90;;;;;;5045366;28;20480;-42
2023/07/21 05:02:01;;;;;;;1.65;1.55;;;16.90;99.90;;;;;;5044353;28;20048;-42
2023/07/21 05:04:48;;;;;;;1.80;1.70;;;17.00;99.90;;;;;;5045246;28;20032;-43
2023/07/21 05:07:13;;;;;;;1.60;1.50;;;17.00;99.90;;;;;;5035365;28;20028;-42
2023/07/21 05:09:39;;;;;;;1.83;1.65;;;17.00;99.90;;;;;;5043809;28;20049;-42
2023/07/21 05:12:05;;;;;;;3.33;1.75;;;17.00;99.90;;;;;;5044762;28;20024;-41
2023/07/21 05:14:33;;;;;;;2.22;1.65;;;16.90;99.90;;;;;;5044860;28;20039;-42
2023/07/21 05:16:59;;;;;;;1.60;1.50;;;16.90;99.90;;;;;;5044518;28;20463;-41
2023/07/21 05:19:25;;;;;;;1.80;1.70;;;16.90;99.90;;;;;;5045322;28;20028;-41
2023/07/21 05:21:50;;;;;;;2.80;2.00;;;16.90;99.90;;;;;;5044839;28;20792;-41
2023/07/21 05:24:16;;;;;;;1.77;1.67;;;16.90;99.90;;;;;;5044250;28;20021;-41
2023/07/21 05:26:41;;;;;;;2.10;1.90;;;16.80;99.90;;;;;;5044691;28;20037;-41
2023/07/21 05:29:08;;;;;;;1.92;1.77;;;16.80;99.90;;;;;;5045086;28;20017;-42
2023/07/21 05:31:38;;;;;;;1.80;1.67;;;16.80;99.90;;;;;;5043930;28;20038;-42
2023/07/21 05:34:07;;;;;;;2.03;1.80;;;16.80;99.90;;;;;;5044424;28;20029;-42
2023/07/21 05:36:33;;;;;;;1.80;1.70;;;16.90;99.90;;;;;;5045040;28;20114;-42
2023/07/21 05:38:59;;;;;;;1.90;1.80;;;16.90;99.90;;;;;;5044697;28;20033;-42
2023/07/21 05:41:24;;;;;;;2.10;1.90;;;16.90;99.90;;;;;;5044557;28;20013;-42
2023/07/21 05:43:50;;;;;;;2.65;1.90;;;16.90;99.90;;;;;;5044798;28;20033;-42
2023/07/21 05:46:16;;;;;;;2.55;2.35;;;17.00;99.90;;;;;;5043870;28;20765;-42
2023/07/21 05:48:41;;;;;;;2.40;2.20;;;17.10;99.90;;;;;;5044911;28;20029;-42
2023/07/21 05:51:12;;;;;;;1.90;1.80;;;17.10;99.90;;;;;;5044386;28;20051;-42
2023/07/21 05:53:40;;;;;;;2.35;1.73;;;17.20;99.90;;;;;;5044533;28;20067;-42
2023/07/21 05:56:07;;;;;;;1.80;1.70;;;17.30;99.90;;;;;;5044694;28;20513;-42
2023/07/21 05:58:34;;;;;;;2.08;1.92;;;17.30;99.90;;;;;;5043506;28;20384;-42
2023/07/21 06:01:00;;;;;;;1.83;1.73;;;17.30;99.90;;;;;;5044497;28;20457;-41
2023/07/21 06:03:26;;;;;;;2.10;1.90;;;17.30;99.90;;;;;;5043645;28;20546;-41
2023/07/21 06:05:52;;;;;;;2.28;2.17;;;17.30;99.90;;;;;;5043926;28;20029;-41
2023/07/21 06:08:18;;;;;;;2.10;1.90;;;17.40;99.90;;;;;;5043793;28;20045;-42
2023/07/21 06:10:44;;;;;;;2.15;2.00;;;17.30;99.90;;;;;;5044013;28;20044;-42
2023/07/21 06:13:10;;;;;;;1.70;1.60;;;17.40;99.90;;;;;;5043516;28;20036;-42
2023/07/21 06:15:39;;;;;;;1.95;1.85;;;17.50;99.90;;;;;;5044434;28;20044;-42
2023/07/21 06:18:05;;;;;;;2.08;1.98;;;17.50;99.90;;;;;;5044497;28;20108;-43
2023/07/21 06:20:31;;;;;;;1.58;1.48;;;17.60;99.90;;;;;;5043907;28;20029;-43
2023/07/21 06:22:57;;;;;;;1.95;1.77;;;17.60;99.90;;;;;;5044277;28;20044;-42
2023/07/21 06:25:24;;;;;;;1.52;1.40;;;17.60;99.90;;;;;;5044869;28;20021;-42
2023/07/21 06:27:50;;;;;;;2.75;1.80;;;17.70;99.90;;;;;;5043412;28;20037;-41
2023/07/21 06:30:16;;;;;;;1.80;1.70;;;17.70;99.90;;;;;;5044152;28;20044;-41
2023/07/21 06:32:42;;;;;;;2.10;1.70;;;17.70;99.90;;;;;;5044532;28;20021;-41
2023/07/21 06:35:11;;;;;;;2.50;1.48;;;17.80;99.90;;;;;;5043165;28;20037;-42
2023/07/21 06:37:43;;;;;;;1.70;1.60;;;17.80;99.90;;;;;;5044248;28;20021;-42
2023/07/21 06:40:09;;;;;;;;;;;17.80;99.90;;;;;;5044732;28;20025;-42
2023/07/21 06:42:43;;;;;;;1.50;1.40;;;17.90;99.90;;;;;;5044561;28;20409;-42
2023/07/21 06:45:09;;;;;;;1.60;1.50;;;18.00;99.90;;;;;;5048356;28;20044;-42
2023/07/21 06:47:35;;;;;;;1.50;1.40;;;18.00;99.90;;;;;;5046919;28;20017;-42
2023/07/21 06:50:01;;;;;;;1.58;1.33;;;17.90;99.90;;;;;;5047395;28;20644;-41
2023/07/21 06:52:26;;;;;;;1.30;1.20;;;18.00;99.90;;;;;;5048645;28;20052;-41
2023/07/21 06:54:52;;;;;;;1.83;1.48;;;18.00;99.90;;;;;;5046743;28;20024;-41
2023/07/21 06:57:19;;;;;;;1.95;1.13;;;18.00;99.90;;;;;;5047637;28;20888;-41
2023/07/21 06:59:47;;;;;;;1.77;1.10;;;18.10;99.90;;;;;;5047340;28;20444;-42
2023/07/21 07:02:13;;;;;;;1.40;1.30;;;18.10;99.90;;;;;;5046970;28;20107;-42
2023/07/21 07:04:39;;;;;;;1.50;1.40;;;18.30;99.90;;;;;;5047207;28;20031;-42
2023/07/21 07:07:05;;;;;;;1.42;1.20;;;18.40;99.90;;;;;;5047545;28;20048;-42
2023/07/21 07:09:31;;;;;;;1.20;0.95;;;18.60;99.90;;;;;;5046714;28;20052;-42
2023/07/21 07:11:57;;;;;;;1.38;1.15;;;18.70;99.90;;;;;;5047344;28;20025;-42
2023/07/21 07:14:22;;;;;;;0.80;0.80;;;18.80;99.90;;;;;;5047105;28;20405;-42
2023/07/21 07:16:48;;;;;;;1.25;1.08;;;18.90;99.90;;;;;;5046542;28;20083;-41
2023/07/21 07:19:13;;;;;;;1.20;1.10;;;19.10;99.90;;;;;;5047215;28;20025;-42
2023/07/21 07:21:40;;;;;;;1.23;0.98;;;19.20;99.90;;;;;;5047209;28;20108;-42
2023/07/21 07:24:09;;;;;;;1.10;1.00;;;19.30;99.90;;;;;;5045986;28;20495;-42
2023/07/21 07:26:38;;;;;;;1.33;0.90;;;19.40;99.90;;;;;;5047240;28;20052;-42
2023/07/21 07:29:04;;;;;;;0.90;0.90;;;19.50;99.90;;;;;;5047355;28;20185;-42
2023/07/21 07:31:33;;;;;;;1.00;0.95;;;19.60;99.90;;;;;;5047416;28;20044;-42
2023/07/21 07:34:02;;;;;;;1.20;1.00;;;19.70;99.90;;;;;;5047039;28;20583;-42
2023/07/21 07:36:30;;;;;;;1.02;0.90;;;19.80;99.90;;;;;;5047269;28;20130;-42
2023/07/21 07:38:56;;;;;;;1.90;0.90;;;20.00;99.90;;;;;;5047291;28;20025;-42
2023/07/21 07:41:28;;;;;;;1.50;1.00;;;20.10;99.90;;;;;;5046991;28;20031;-42
2023/07/21 07:43:53;;;;;;;1.02;0.90;;;20.20;99.90;;;;;;5046688;28;20570;-41
2023/07/21 07:46:19;;;;;;;1.38;1.02;;;20.30;99.90;;;;;;5046909;28;20037;-42
2023/07/21 07:48:45;;;;;;;1.20;1.00;;;20.40;99.90;;;;;;5046695;28;20051;-42
2023/07/21 07:51:10;;;;;;;0.80;0.80;;;20.50;99.70;;;;;;5045915;28;20033;-41
2023/07/21 07:53:36;;;;;;;1.10;0.80;;;20.50;99.50;;;;;;5046382;28;20017;-41
2023/07/21 07:56:03;;;;;;;1.33;0.90;;;20.60;99.40;;;;;;5045600;28;20040;-41
2023/07/21 07:58:29;;;;;;;1.95;0.80;;;20.60;99.10;;;;;;5046116;28;20028;-41
2023/07/21 08:00:57;;;;;;;2.17;0.80;;;20.60;99.40;;;;;;5045896;28;20037;-41
2023/07/21 08:03:23;;;;;;;2.28;1.35;;;20.60;99.00;;;;;;5047230;28;20017;-42
2023/07/21 08:05:50;;;;;;;1.40;1.30;;;20.60;98.90;;;;;;5045081;28;20677;-42
2023/07/21 08:08:18;;;;;;;1.85;1.27;;;20.60;98.90;;;;;;5045701;28;20068;-42
2023/07/21 08:10:44;;;;;;;1.48;1.20;;;20.60;98.90;;;;;;5046327;28;20489;-42
2023/07/21 08:13:11;;;;;;;1.80;1.05;;;20.70;98.90;;;;;;5045322;28;20021;-43
2023/07/21 08:15:43;;;;;;;1.05;0.90;;;20.70;98.80;;;;;;5046066;28;20032;-43
2023/07/21 08:18:10;;;;;;;1.20;1.10;;;20.80;98.70;;;;;;5043454;28;20029;-43
2023/07/21 08:20:37;;;;;;;1.20;1.10;;;20.80;98.60;;;;;;5045462;28;20036;-42
2023/07/21 08:23:03;;;;;;;2.15;1.50;;;20.80;98.60;;;;;;5045813;28;20036;-42
2023/07/21 08:25:28;;;;;;;3.00;1.40;;;20.90;98.50;;;;;;5046584;28;20025;-42
2023/07/21 08:27:54;;;;;;;5.47;2.45;;;20.90;98.40;;;;;;5044734;28;20037;-42
2023/07/21 08:30:20;;;;;;;2.83;1.30;;;20.90;98.30;;;;;;5046169;28;20036;-42
2023/07/21 08:32:45;;;;;;;1.60;1.17;;;20.90;98.20;;;;;;5046101;28;20024;-42
2023/07/21 08:35:11;;;;;;;1.13;1.00;;;20.90;98.10;;;;;;5045241;28;20377;-42
2023/07/21 08:37:38;;;;;;;1.58;1.00;;;21.10;98.10;;;;;;5045387;28;20801;-42
2023/07/21 08:40:08;;;;;;;2.22;0.93;;;21.10;98.00;;;;;;5045447;28;20570;-42
2023/07/21 08:42:36;;;;;;;1.15;1.05;;;21.10;97.90;;;;;;5045703;28;20130;-41
2023/07/21 08:45:06;;;;;;;2.17;1.02;;;21.20;97.90;;;;;;5045623;28;20040;-41
2023/07/21 08:47:33;;;;;;;1.15;1.05;;;21.20;98.10;;;;;;5044751;28;20025;-41
2023/07/21 08:49:59;;;;;;;1.48;1.30;;;21.30;97.80;;;;;;5045033;28;20829;-41
2023/07/21 08:52:27;;;;;;;1.10;1.00;;;21.30;97.70;;;;;;5045622;28;20044;-42
2023/07/21 08:54:53;;;;;;;1.00;0.90;;;21.30;97.60;;;;;;5044908;28;20057;-41
2023/07/21 08:57:19;;;;;;;1.65;0.90;;;21.30;97.50;;;;;;5044970;28;20448;-41
2023/07/21 08:59:45;;;;;;;1.83;0.90;;;21.30;97.60;;;;;;5045039;28;20434;-41
2023/07/21 09:02:10;;;;;;;1.20;1.10;;;21.20;97.30;;;;;;5043997;28;20060;-41
2023/07/21 09:04:37;;;;;;;1.17;1.08;;;21.20;97.20;;;;;;5041449;28;20025;-42
2023/07/21 09:07:03;;;;;;;1.88;1.40;;;21.20;97.20;;;;;;5045011;28;20028;-41
2023/07/21 09:09:49;;;;;;;1.10;1.00;;;21.10;97.20;;;;;;5044060;28;20122;-41
2023/07/21 09:12:15;;;;;;;1.77;1.23;;;21.10;97.40;;;;;;5044538;28;20123;-42
2023/07/21 09:14:42;;;;;;;1.50;1.30;;;20.90;96.80;;;;;;5044683;28;20209;-42
2023/07/21 09:17:10;;;;;;;1.13;1.02;;;20.80;96.80;;;;;;5044527;28;20024;-42
2023/07/21 09:19:37;;;;;;;1.40;1.10;;;20.70;96.90;;;;;;5044669;28;20028;-42
2023/07/21 09:22:03;;;;;;;2.88;1.23;;;20.70;97.00;;;;;;5044789;28;20040;-42
2023/07/21 09:24:37;;;;;;;1.65;1.10;;;20.70;97.00;;;;;;5045392;28;20017;-42
2023/07/21 09:27:34;;;;;;;0.93;0.90;;;20.70;96.80;;;;;;5045052;28;20393;-43
2023/07/21 09:30:02;;;;;;;1.88;1.08;;;20.70;96.60;;;;;;5039193;28;20041;-42
2023/07/21 09:32:27;;;;;;;1.55;1.20;;;20.70;96.40;;;;;;5045954;28;20104;-41
2023/07/21 09:35:01;;;;;;;1.88;1.33;;;20.80;96.30;;;;;;5044626;28;20488;-41
2023/07/21 09:37:29;;;;;;;1.55;1.45;;;20.80;96.00;;;;;;5024630;28;20418;-41
2023/07/21 09:39:58;;;;;;;1.08;1.02;;;21.00;95.90;;;;;;5038733;28;20025;-41
2023/07/21 09:42:28;;;;;;;1.33;1.23;;;21.10;95.80;;;;;;5045682;28;20033;-41
2023/07/21 09:45:14;;;;;;;1.77;1.10;;;21.20;95.40;;;;;;5043821;28;20025;-41
2023/07/21 09:47:48;;;;;;;1.48;1.10;;;21.30;95.00;;;;;;5044406;28;20087;-42
2023/07/21 09:50:13;;;;;;;0.93;0.80;;;21.50;94.90;;;;;;5043945;28;20021;-42
2023/07/21 09:52:45;;;;;;;0.77;0.73;;;21.60;94.60;;;;;;5044791;28;20043;-42
2023/07/21 09:55:13;;;;;;;1.30;1.20;;;21.80;94.80;;;;;;5044774;28;20041;-41
2023/07/21 09:57:45;;;;;;;0.93;0.80;;;21.90;93.90;;;;;;5043767;28;20129;-41
2023/07/21 10:00:15;;;;;;;1.00;0.88;;;22.00;93.90;;;;;;5044606;28;20025;-41
2023/07/21 10:02:42;;;;;;;0.80;0.80;;;22.10;93.80;;;;;;5044097;28;20025;-41
2023/07/21 10:05:14;;;;;;;1.00;0.70;;;22.20;93.80;;;;;;5043399;28;20096;-42
2023/07/21 10:07:50;;;;;;;0.60;0.60;;;22.40;93.70;;;;;;5044610;28;20376;-41
2023/07/21 10:10:25;;;;;;;1.05;0.90;;;22.40;92.80;;;;;;5044302;28;20107;-41
2023/07/21 10:12:53;;;;;;;0.95;0.70;;;22.40;92.80;;;;;;5043910;28;20036;-41
2023/07/21 10:15:21;;;;;;;1.02;0.80;;;22.40;92.80;;;;;;5043718;28;20080;-39
2023/07/21 10:17:56;;;;;;;1.52;0.90;;;22.40;92.80;;;;;;5045770;28;20025;-41
2023/07/21 10:20:43;;;;;;;1.25;1.10;;;22.30;92.70;;;;;;5047651;28;20054;-41
2023/07/21 10:23:11;;;;;;;0.60;0.60;;;22.30;92.40;;;;;;5048647;28;20471;-41
2023/07/21 10:26:07;;;;;;;0.73;0.73;;;22.20;92.50;;;;;;5047107;28;20729;-41
2023/07/21 10:28:43;;;;;;;0.90;0.88;;;22.10;92.60;;;;;;5048105;28;20033;-41
2023/07/21 10:31:20;;;;;;;1.20;1.10;;;22.10;92.70;;;;;;5048066;28;20051;-41
2023/07/21 10:34:07;;;;;;;1.40;1.10;;;22.10;92.80;;;;;;5047542;28;20384;-42
2023/07/21 10:36:41;;;;;;;1.65;1.10;;;22.00;92.70;;;;;;5048128;28;20123;-41
2023/07/21 10:39:11;;;;;;;2.17;1.17;;;22.10;92.80;;;;;;5047818;28;20108;-41
2023/07/21 10:41:38;;;;;;;2.53;1.67;;;22.10;92.80;;;;;;5047216;28;20128;-41
2023/07/21 10:44:11;;;;;;;1.52;1.10;;;22.20;92.80;;;;;;5048554;28;20025;-41
2023/07/21 10:46:40;;;;;;;;;;;22.20;92.80;;;;;;5047416;28;20790;-42
2023/07/21 10:49:09;;;;;;;0.95;0.95;;;22.20;92.70;;;;;;5048025;28;19970;-42
2023/07/21 10:51:34;;;;;;;0.95;0.82;;;22.20;92.70;;;;;;5047555;28;20028;-42
2023/07/21 10:54:00;;;;;;;0.90;0.90;;;22.20;92.60;;;;;;5046899;28;20751;-42
2023/07/21 10:56:27;;;;;;;0.90;0.73;;;22.20;92.50;;;;;;5047958;28;20082;-42
2023/07/21 10:58:52;;;;;;;1.50;0.60;;;22.20;92.20;;;;;;5036471;28;20472;-42
2023/07/21 11:01:21;;;;;;;0.88;0.68;;;22.10;91.90;;;;;;5046716;28;20021;-42
2023/07/21 11:03:48;;;;;;;1.13;0.80;;;22.10;91.50;;;;;;5047332;28;20136;-42
2023/07/21 11:06:16;;;;;;;0.82;0.82;;;22.10;91.40;;;;;;5047105;28;20358;-42
2023/07/21 11:08:45;;;;;;;0.80;0.80;;;22.10;91.30;;;;;;5046587;28;20460;-42
2023/07/21 11:11:14;;;;;;;1.83;0.60;;;22.10;91.40;;;;;;5047431;28;20033;-42
2023/07/21 11:13:40;;;;;;;0.82;0.60;;;22.10;91.40;;;;;;5047373;28;20032;-42
2023/07/21 11:16:06;;;;;;;0.88;0.65;;;22.20;91.30;;;;;;5046452;28;20039;-42
2023/07/21 11:18:32;;;;;;;0.70;0.70;;;22.30;91.10;;;;;;5047121;28;20385;-42
2023/07/21 11:20:57;;;;;;;1.10;1.00;;;22.40;90.90;;;;;;5048013;28;20075;-43
2023/07/21 11:23:24;;;;;;;2.35;0.80;;;22.40;90.80;;;;;;5046498;28;20662;-42
2023/07/21 11:26:04;;;;;;;0.77;0.77;;;22.60;90.70;;;;;;5047360;28;20489;-42
2023/07/21 11:28:30;;;;;;;1.75;0.82;;;22.80;90.50;;;;;;5047216;28;20060;-43
2023/07/21 11:30:56;;;;;;;1.05;0.60;;;23.00;90.40;;;;;;5046016;28;20013;-41
2023/07/21 11:33:23;;;;;;;1.00;1.00;;;23.10;90.30;;;;;;5047256;28;20464;-41
2023/07/21 11:35:50;;;;;;;2.65;0.80;;;23.30;90.10;;;;;;5046157;28;20033;-42
2023/07/21 11:38:15;;;;;;;0.98;0.98;;;23.40;89.90;;;;;;5046642;28;20520;-41
2023/07/21 11:40:41;;;;;;;1.48;0.80;;;23.50;89.60;;;;;;5046760;28;20021;-41
2023/07/21 11:43:10;;;;;;;0.90;0.90;;;23.70;89.30;;;;;;5045803;28;20052;-41
2023/07/21 11:45:42;;;;;;;1.27;0.63;;;23.80;88.90;;;;;;5047050;28;20033;-41
2023/07/21 11:48:20;;;;;;;1.48;1.05;;;23.90;88.60;;;;;;5046374;28;20393;-42
2023/07/21 11:50:54;;;;;;;1.30;1.20;;;24.00;88.00;;;;;;5040447;28;20033;-42
2023/07/21 11:53:22;;;;;;;1.35;0.93;;;24.10;87.00;;;;;;5046728;28;20040;-42
2023/07/21 11:55:48;;;;;;;1.13;1.02;;;24.00;86.70;;;;;;5035611;28;20815;-42
2023/07/21 11:58:13;;;;;;;1.40;0.90;;;23.90;86.80;;;;;;5045579;28;20385;-42
2023/07/21 12:00:43;;;;;;;0.98;0.98;;;23.80;87.10;;;;;;5046305;28;20033;-42
2023/07/21 12:03:10;;;;;;;1.50;1.20;;;23.70;87.20;;;;;;5046056;28;20028;-42
2023/07/21 12:05:36;;;;;;;0.95;0.90;;;23.70;87.40;;;;;;5045914;28;20134;-42
2023/07/21 12:08:03;;;;;;;2.35;1.23;;;23.70;87.30;;;;;;5046138;28;20086;-42
2023/07/21 12:10:32;;;;;;;1.15;1.00;;;23.80;87.10;;;;;;5046649;28;20112;-43
2023/07/21 12:12:58;;;;;;;1.00;0.90;;;23.80;86.90;;;;;;5045844;28;20013;-42
2023/07/21 12:15:29;;;;;;;1.30;1.20;;;23.80;86.70;;;;;;5045706;28;20031;-42
2023/07/21 12:17:55;;;;;;;0.95;0.95;;;23.60;87.40;;;;;;5025536;28;20128;-43
2023/07/21 12:20:22;;;;;;;1.17;0.95;;;23.50;86.90;;;;;;5040650;28;20107;-43
2023/07/21 12:22:47;;;;;;;0.70;0.70;;;23.50;87.20;;;;;;5046065;28;20403;-42
2023/07/21 12:25:13;;;;;;;1.30;1.20;;;23.50;87.40;;;;;;5045057;28;20520;-42
2023/07/21 12:27:39;;;;;;;1.00;0.90;;;23.60;86.70;;;;;;5045343;28;20033;-42
2023/07/21 12:30:10;;;;;;;1.10;0.90;;;23.60;86.80;;;;;;5046074;28;20016;-43
2023/07/21 12:32:36;;;;;;;1.52;1.25;;;23.60;86.80;;;;;;5045619;28;20036;-42
2023/07/21 12:35:04;;;;;;;0.82;0.82;;;23.60;86.70;;;;;;5045532;28;20377;-43
2023/07/21 12:37:30;;;;;;;1.02;0.82;;;23.50;86.80;;;;;;5046651;28;20075;-42
2023/07/21 12:39:56;;;;;;;0.85;0.85;;;23.50;87.10;;;;;;5045068;28;20025;-43
2023/07/21 12:42:22;;;;;;;0.88;0.88;;;23.40;86.70;;;;;;5045475;28;20028;-43
2023/07/21 12:44:47;;;;;;;2.22;1.00;;;23.40;85.30;;;;;;5045717;28;20476;-42
2023/07/21 12:47:13;;;;;;;0.75;0.75;;;23.30;85.40;;;;;;5044889;28;20493;-42
2023/07/21 12:49:41;;;;;;;1.50;1.00;;;23.20;85.70;;;;;;5045494;28;20036;-40
2023/07/21 12:52:07;;;;;;;1.00;1.00;;;23.10;86.20;;;;;;5044332;28;20025;-42